Time;durP1;ratioP1;P1;durP2;ratioP2;P2;SDS_P1;SDS_P2;PMS_P1;PMS_P2;Temp;Humidity;BMP_temperature;BMP_pressure;BME280_temperature;BME280_humidity;BME280_pressure;Samples;Min_cycle;Max_cycle;Signal;HPM_P1;HPM_P2
2023/10/31 00:02:16;;;;;;;1.20;1.15;;;11.30;99.90;;;;;;4952509;28;20089;-74
2023/10/31 00:04:42;;;;;;;0.65;0.65;;;11.20;99.90;;;;;;4953229;28;20046;-74
2023/10/31 00:07:08;;;;;;;0.75;0.75;;;11.30;99.90;;;;;;4952354;28;20058;-74
2023/10/31 00:09:33;;;;;;;1.85;1.25;;;11.30;99.90;;;;;;4949995;28;20500;-74
2023/10/31 00:11:59;;;;;;;0.73;0.73;;;11.20;99.90;;;;;;4951989;28;20117;-74
2023/10/31 00:14:25;;;;;;;0.77;0.77;;;11.30;99.90;;;;;;4948779;28;20050;-74
2023/10/31 00:16:51;;;;;;;0.95;0.85;;;11.20;99.90;;;;;;4949999;28;20046;-74
2023/10/31 00:19:16;;;;;;;0.85;0.75;;;11.30;99.90;;;;;;4950990;28;20720;-74
2023/10/31 00:21:42;;;;;;;0.93;0.93;;;11.20;99.90;;;;;;4953888;28;20468;-74
2023/10/31 00:24:08;;;;;;;1.05;1.05;;;11.20;99.90;;;;;;4951585;28;20082;-74
2023/10/31 00:26:33;;;;;;;0.88;0.88;;;11.30;99.90;;;;;;4950331;28;20424;-75
2023/10/31 00:28:59;;;;;;;0.77;0.77;;;11.30;99.90;;;;;;4950845;28;20074;-74
2023/10/31 00:31:24;;;;;;;0.60;0.60;;;11.20;99.90;;;;;;4950556;28;20058;-74
2023/10/31 00:33:50;;;;;;;0.60;0.60;;;11.30;99.90;;;;;;4949826;28;20149;-74
2023/10/31 00:36:18;;;;;;;0.77;0.77;;;11.30;99.90;;;;;;4951241;28;20522;-74
2023/10/31 00:38:43;;;;;;;0.40;0.40;;;11.20;99.90;;;;;;4948974;28;20059;-74
2023/10/31 00:41:09;;;;;;;0.40;0.40;;;11.30;99.90;;;;;;4947995;28;20534;-74
2023/10/31 00:43:34;;;;;;;0.40;0.40;;;11.30;99.90;;;;;;4949061;28;20046;-74
2023/10/31 00:46:03;;;;;;;1.05;0.95;;;11.20;99.90;;;;;;4948858;28;20568;-74
2023/10/31 00:48:28;;;;;;;0.80;0.80;;;11.30;99.90;;;;;;4948049;28;20050;-74
2023/10/31 00:50:54;;;;;;;0.70;0.70;;;11.30;99.90;;;;;;4948676;28;20404;-74
2023/10/31 00:53:20;;;;;;;0.45;0.45;;;11.30;99.90;;;;;;4947520;28;20038;-74
2023/10/31 00:55:45;;;;;;;0.52;0.50;;;11.30;99.90;;;;;;4947828;28;20051;-74
2023/10/31 00:58:11;;;;;;;0.50;0.50;;;11.30;99.90;;;;;;4948540;28;20070;-74
2023/10/31 01:00:37;;;;;;;1.13;1.10;;;11.30;99.90;;;;;;4947706;28;20043;-74
2023/10/31 01:03:03;;;;;;;0.50;0.50;;;11.30;99.90;;;;;;4947980;28;20062;-74
2023/10/31 01:05:29;;;;;;;0.45;0.45;;;11.30;99.90;;;;;;4948463;28;20519;-74
2023/10/31 01:07:55;;;;;;;0.60;0.60;;;11.30;99.90;;;;;;4947609;28;20035;-74
2023/10/31 01:10:22;;;;;;;0.50;0.50;;;11.30;99.90;;;;;;4948981;28;20167;-74
2023/10/31 01:12:48;;;;;;;0.50;0.50;;;11.30;99.90;;;;;;4948240;28;20065;-74
2023/10/31 01:15:13;;;;;;;0.70;0.70;;;11.30;99.90;;;;;;4944755;28;20051;-74
2023/10/31 01:17:39;;;;;;;0.55;0.50;;;11.30;99.90;;;;;;4933176;28;20067;-75
2023/10/31 01:20:06;;;;;;;0.40;0.40;;;11.30;99.90;;;;;;4952321;28;20045;-75
2023/10/31 01:22:32;;;;;;;0.32;0.32;;;11.30;99.90;;;;;;4954678;28;20039;-76
2023/10/31 01:24:57;;;;;;;0.50;0.50;;;11.30;99.90;;;;;;4957073;28;20089;-76
2023/10/31 01:27:23;;;;;;;0.88;0.73;;;11.30;99.90;;;;;;4955327;28;20054;-76
2023/10/31 01:29:49;;;;;;;0.40;0.40;;;11.30;99.90;;;;;;4954039;28;20042;-77
2023/10/31 01:32:14;;;;;;;0.60;0.60;;;11.30;99.90;;;;;;4951145;28;20114;-77
2023/10/31 01:34:40;;;;;;;0.40;0.40;;;11.30;99.90;;;;;;4953792;28;20058;-75
2023/10/31 01:37:06;;;;;;;0.30;0.30;;;11.30;99.90;;;;;;4951862;28;20518;-75
2023/10/31 01:39:31;;;;;;;0.40;0.40;;;11.20;99.90;;;;;;4948157;28;20047;-75
2023/10/31 01:41:57;;;;;;;0.40;0.40;;;11.10;99.90;;;;;;4953129;28;20046;-74
2023/10/31 01:44:23;;;;;;;0.35;0.35;;;11.10;99.90;;;;;;4950984;28;20751;-75
2023/10/31 01:46:48;;;;;;;0.40;0.40;;;11.00;99.90;;;;;;4950804;28;20036;-74
2023/10/31 01:49:14;;;;;;;0.40;0.40;;;10.90;99.90;;;;;;4948967;28;20074;-74
2023/10/31 01:51:44;;;;;;;0.40;0.40;;;10.80;99.90;;;;;;4953842;28;20039;-74
2023/10/31 01:54:10;;;;;;;0.45;0.45;;;10.70;99.90;;;;;;4950646;28;20153;-73
2023/10/31 01:56:37;;;;;;;0.45;0.45;;;10.70;99.90;;;;;;4951404;28;20051;-73
2023/10/31 01:59:05;;;;;;;0.40;0.40;;;10.70;99.90;;;;;;4951548;28;20051;-74
2023/10/31 02:01:33;;;;;;;0.50;0.50;;;10.70;99.90;;;;;;4951318;28;20050;-74
2023/10/31 02:04:02;;;;;;;0.40;0.40;;;10.70;99.90;;;;;;4949579;28;20085;-75
2023/10/31 02:06:30;;;;;;;0.40;0.40;;;10.50;99.90;;;;;;4950409;28;20492;-74
2023/10/31 02:08:56;;;;;;;0.40;0.40;;;10.50;99.90;;;;;;4949836;28;20047;-75
2023/10/31 02:11:21;;;;;;;0.40;0.40;;;10.50;99.90;;;;;;4951053;28;20049;-76
2023/10/31 02:13:48;;;;;;;0.30;0.30;;;10.50;99.90;;;;;;4950560;28;20050;-75
2023/10/31 02:16:14;;;;;;;0.45;0.45;;;10.50;99.90;;;;;;4947941;28;20046;-75
2023/10/31 02:18:39;;;;;;;0.40;0.40;;;10.50;99.90;;;;;;4931839;28;20053;-75
2023/10/31 02:21:05;;;;;;;0.32;0.32;;;10.40;99.90;;;;;;4948229;28;20533;-75
2023/10/31 02:23:31;;;;;;;0.40;0.40;;;10.30;99.90;;;;;;4948514;28;20592;-75
2023/10/31 02:25:57;;;;;;;0.40;0.40;;;10.40;99.90;;;;;;4950444;28;20125;-74
2023/10/31 02:28:27;;;;;;;0.40;0.40;;;10.30;99.90;;;;;;4946343;28;20106;-75
2023/10/31 02:30:54;;;;;;;0.40;0.40;;;10.30;99.90;;;;;;4951052;28;20075;-75
2023/10/31 02:33:21;;;;;;;0.40;0.40;;;10.20;99.90;;;;;;4948664;28;20053;-75
2023/10/31 02:35:47;;;;;;;0.60;0.60;;;10.20;99.90;;;;;;4947735;28;20071;-77
2023/10/31 02:38:12;;;;;;;0.40;0.40;;;10.20;99.90;;;;;;4946914;28;20117;-75
2023/10/31 02:40:38;;;;;;;0.50;0.50;;;10.20;99.90;;;;;;4948283;28;20038;-75
2023/10/31 02:43:04;;;;;;;0.50;0.50;;;10.20;99.90;;;;;;4945652;28;21620;-75
2023/10/31 02:45:30;;;;;;;0.40;0.40;;;10.20;99.90;;;;;;4948162;28;20047;-75
2023/10/31 02:47:55;;;;;;;0.40;0.40;;;10.10;99.90;;;;;;4949058;28;20038;-75
2023/10/31 02:50:21;;;;;;;0.30;0.30;;;10.10;99.90;;;;;;4949884;28;20740;-74
2023/10/31 02:52:47;;;;;;;0.40;0.40;;;10.10;99.90;;;;;;4948896;28;20055;-74
2023/10/31 02:55:13;;;;;;;0.38;0.38;;;10.10;99.90;;;;;;4949913;28;20058;-75
2023/10/31 02:57:38;;;;;;;0.40;0.40;;;10.10;99.90;;;;;;4948113;28;20135;-78
2023/10/31 03:00:06;;;;;;;0.40;0.40;;;10.10;99.90;;;;;;4950868;28;20763;-75
2023/10/31 03:02:32;;;;;;;0.40;0.40;;;10.10;99.90;;;;;;4964654;28;20064;-75
2023/10/31 03:04:58;;;;;;;0.40;0.40;;;10.10;99.90;;;;;;4949648;28;20082;-75
2023/10/31 03:07:24;;;;;;;0.50;0.50;;;10.00;99.90;;;;;;4947640;28;20130;-75
2023/10/31 03:09:49;;;;;;;0.30;0.30;;;10.00;99.90;;;;;;4949454;28;20046;-75
2023/10/31 03:12:15;;;;;;;0.43;0.43;;;10.10;99.90;;;;;;4948997;28;20065;-74
2023/10/31 03:14:42;;;;;;;0.40;0.40;;;10.00;99.90;;;;;;4947113;28;20260;-75
2023/10/31 03:17:08;;;;;;;0.50;0.50;;;10.00;99.90;;;;;;4946602;28;20082;-75
2023/10/31 03:19:33;;;;;;;0.40;0.40;;;10.00;99.90;;;;;;4946222;28;21644;-74
2023/10/31 03:21:59;;;;;;;0.50;0.50;;;10.00;99.90;;;;;;4947407;28;20046;-74
2023/10/31 03:24:24;;;;;;;0.55;0.40;;;10.00;99.90;;;;;;4947657;28;20063;-74
2023/10/31 03:26:50;;;;;;;0.43;0.43;;;10.00;99.90;;;;;;4949327;28;20396;-75
2023/10/31 03:29:16;;;;;;;0.38;0.38;;;9.90;99.90;;;;;;4948042;28;20051;-74
2023/10/31 03:31:41;;;;;;;0.40;0.40;;;10.00;99.90;;;;;;4946336;28;20945;-74
2023/10/31 03:34:07;;;;;;;0.40;0.40;;;10.00;99.90;;;;;;4947220;28;20058;-74
2023/10/31 03:36:33;;;;;;;0.50;0.50;;;9.90;99.90;;;;;;4947118;28;20055;-75
2023/10/31 03:38:58;;;;;;;0.40;0.40;;;9.90;99.90;;;;;;4945608;28;20055;-75
2023/10/31 03:41:24;;;;;;;0.40;0.40;;;9.90;99.90;;;;;;4948199;28;20133;-75
2023/10/31 03:43:49;;;;;;;0.40;0.40;;;9.90;99.90;;;;;;4948286;28;20049;-74
2023/10/31 03:46:15;;;;;;;0.40;0.40;;;9.90;99.90;;;;;;4948200;28;20456;-74
2023/10/31 03:48:42;;;;;;;0.75;0.75;;;9.90;99.90;;;;;;4949282;28;20039;-74
2023/10/31 03:51:07;;;;;;;0.40;0.40;;;10.00;99.90;;;;;;4947339;28;20053;-74
2023/10/31 03:53:33;;;;;;;0.70;0.70;;;9.90;99.90;;;;;;4944414;28;20034;-74
2023/10/31 03:56:00;;;;;;;0.65;0.65;;;10.00;99.90;;;;;;4946656;28;20050;-75
2023/10/31 03:58:25;;;;;;;0.50;0.50;;;9.90;99.90;;;;;;4948083;28;20105;-75
2023/10/31 04:00:51;;;;;;;0.68;0.68;;;10.00;99.90;;;;;;4948009;28;20050;-75
2023/10/31 04:03:17;;;;;;;0.50;0.50;;;9.90;99.90;;;;;;4947242;28;20129;-75
2023/10/31 04:05:42;;;;;;;0.88;0.88;;;9.90;99.90;;;;;;4948067;28;20419;-75
2023/10/31 04:08:08;;;;;;;0.50;0.50;;;9.90;99.90;;;;;;4950055;28;20145;-75
2023/10/31 04:10:35;;;;;;;0.60;0.60;;;9.90;99.90;;;;;;4951566;28;20047;-75
2023/10/31 04:13:00;;;;;;;0.65;0.65;;;9.90;99.90;;;;;;4946585;28;20093;-74
2023/10/31 04:15:26;;;;;;;0.45;0.45;;;9.90;99.90;;;;;;4933457;28;20082;-75
2023/10/31 04:17:51;;;;;;;0.73;0.73;;;9.90;99.90;;;;;;4948083;28;20488;-75
2023/10/31 04:20:17;;;;;;;0.40;0.40;;;10.00;99.90;;;;;;4943671;28;20575;-75
2023/10/31 04:22:43;;;;;;;0.30;0.30;;;9.90;99.90;;;;;;4947439;28;20835;-75
2023/10/31 04:25:09;;;;;;;0.40;0.40;;;10.00;99.90;;;;;;4947590;28;20050;-75
2023/10/31 04:27:34;;;;;;;0.60;0.60;;;9.90;99.90;;;;;;4946945;28;20427;-75
2023/10/31 04:30:01;;;;;;;0.47;0.47;;;10.00;99.90;;;;;;4947970;28;20482;-75
2023/10/31 04:32:26;;;;;;;0.50;0.50;;;10.00;99.90;;;;;;4947107;28;20408;-75
2023/10/31 04:34:52;;;;;;;0.40;0.40;;;10.00;99.90;;;;;;4947018;28;20062;-75
2023/10/31 04:37:17;;;;;;;0.50;0.50;;;10.00;99.90;;;;;;4949567;28;20047;-75
2023/10/31 04:39:43;;;;;;;8.13;1.08;;;10.00;99.90;;;;;;4948255;28;20570;-75
2023/10/31 04:42:09;;;;;;;0.35;0.35;;;10.00;99.90;;;;;;4947312;28;20054;-75
2023/10/31 04:44:34;;;;;;;0.40;0.40;;;10.00;99.90;;;;;;4947888;28;20053;-75
2023/10/31 04:47:00;;;;;;;0.60;0.60;;;10.00;99.90;;;;;;4946704;28;20054;-75
2023/10/31 04:49:25;;;;;;;0.40;0.40;;;10.00;99.90;;;;;;4943919;28;20480;-75
2023/10/31 04:51:51;;;;;;;1.30;1.02;;;10.00;99.90;;;;;;4950317;28;20053;-75
2023/10/31 04:54:17;;;;;;;0.40;0.40;;;10.00;99.90;;;;;;4951062;28;20104;-75
2023/10/31 04:56:42;;;;;;;0.50;0.50;;;10.00;99.90;;;;;;4953872;28;20050;-75
2023/10/31 04:59:08;;;;;;;0.63;0.63;;;10.00;99.90;;;;;;4949207;28;20554;-75
2023/10/31 05:01:34;;;;;;;0.70;0.70;;;10.00;99.90;;;;;;4950371;28;20600;-75
2023/10/31 05:03:59;;;;;;;0.75;0.75;;;10.00;99.90;;;;;;4951838;28;20448;-75
2023/10/31 05:06:25;;;;;;;0.60;0.60;;;10.00;99.90;;;;;;4953634;28;20054;-75
2023/10/31 05:08:50;;;;;;;0.38;0.38;;;10.10;99.90;;;;;;4951630;28;20042;-75
2023/10/31 05:11:19;;;;;;;0.43;0.43;;;10.00;99.90;;;;;;4950247;28;20126;-75
2023/10/31 05:13:45;;;;;;;0.30;0.30;;;10.00;99.90;;;;;;4954171;28;20093;-75
2023/10/31 05:16:14;;;;;;;0.50;0.50;;;10.00;99.90;;;;;;4956013;28;20052;-75
2023/10/31 05:18:39;;;;;;;;;;;10.00;99.90;;;;;;4954639;28;20389;-75
2023/10/31 05:21:05;;;;;;;0.40;0.40;;;10.10;99.90;;;;;;4958947;28;20002;-75
2023/10/31 05:23:31;;;;;;;0.40;0.40;;;10.00;99.90;;;;;;4950165;28;20386;-75
2023/10/31 05:25:56;;;;;;;0.77;0.77;;;10.00;99.90;;;;;;4951771;28;20070;-75
2023/10/31 05:28:23;;;;;;;0.40;0.40;;;10.10;99.90;;;;;;4950063;28;20078;-75
2023/10/31 05:30:49;;;;;;;0.50;0.50;;;10.00;99.90;;;;;;4950329;28;20061;-75
2023/10/31 05:33:16;;;;;;;0.80;0.80;;;10.00;99.90;;;;;;4950436;28;20627;-75
2023/10/31 05:35:41;;;;;;;0.40;0.40;;;9.90;99.90;;;;;;4951301;28;20147;-76
2023/10/31 05:38:07;;;;;;;0.57;0.57;;;10.00;99.90;;;;;;4948311;28;20137;-76
2023/10/31 05:40:35;;;;;;;0.40;0.40;;;10.10;99.90;;;;;;4947962;28;20073;-75
2023/10/31 05:43:02;;;;;;;0.40;0.40;;;10.00;99.90;;;;;;4951618;28;20053;-75
2023/10/31 05:45:28;;;;;;;0.50;0.50;;;10.00;99.90;;;;;;4948667;28;20122;-75
2023/10/31 05:47:53;;;;;;;0.65;0.65;;;10.00;99.90;;;;;;4946453;28;20308;-75
2023/10/31 05:50:19;;;;;;;0.50;0.50;;;10.00;99.90;;;;;;4951231;28;20038;-74
2023/10/31 05:52:44;;;;;;;0.40;0.40;;;10.00;99.90;;;;;;4949622;28;20050;-75
2023/10/31 05:55:10;;;;;;;0.40;0.40;;;10.00;99.90;;;;;;4951661;28;21098;-74
2023/10/31 05:57:36;;;;;;;0.40;0.40;;;9.90;99.90;;;;;;4945990;28;20152;-75
2023/10/31 06:00:01;;;;;;;0.60;0.60;;;10.00;99.90;;;;;;4950524;28;20070;-74
2023/10/31 06:02:27;;;;;;;0.50;0.50;;;10.00;99.90;;;;;;4944425;28;20053;-74
2023/10/31 06:04:53;;;;;;;0.40;0.40;;;9.90;99.90;;;;;;4944908;28;21071;-75
2023/10/31 06:07:19;;;;;;;0.45;0.45;;;9.90;99.90;;;;;;4946733;28;20046;-74
2023/10/31 06:09:44;;;;;;;0.40;0.40;;;9.90;99.90;;;;;;4949697;28;20073;-74
2023/10/31 06:12:10;;;;;;;0.40;0.40;;;9.90;99.90;;;;;;4945875;28;20715;-74
2023/10/31 06:14:37;;;;;;;0.50;0.50;;;9.90;99.90;;;;;;4945851;28;20083;-74
2023/10/31 06:17:04;;;;;;;0.40;0.40;;;9.90;99.90;;;;;;4950284;28;20050;-75
2023/10/31 06:19:32;;;;;;;0.85;0.75;;;9.90;99.90;;;;;;4952675;28;20051;-75
2023/10/31 06:21:58;;;;;;;0.43;0.43;;;9.90;99.90;;;;;;4954287;28;20113;-75
2023/10/31 06:24:24;;;;;;;0.50;0.50;;;9.90;99.90;;;;;;4953375;28;20055;-74
2023/10/31 06:26:52;;;;;;;0.50;0.50;;;9.90;99.90;;;;;;4954793;28;20050;-74
2023/10/31 06:29:18;;;;;;;0.43;0.43;;;9.90;99.90;;;;;;4950277;28;20070;-74
2023/10/31 06:31:44;;;;;;;0.63;0.63;;;9.90;99.90;;;;;;4954977;28;20082;-74
2023/10/31 06:34:09;;;;;;;0.40;0.40;;;9.80;99.90;;;;;;4946192;28;20062;-75
2023/10/31 06:36:35;;;;;;;0.47;0.47;;;9.90;99.90;;;;;;4945041;28;20051;-75
2023/10/31 06:39:01;;;;;;;0.50;0.50;;;9.90;99.90;;;;;;4944000;28;20051;-75
2023/10/31 06:41:26;;;;;;;0.40;0.40;;;9.80;99.90;;;;;;4944374;28;20444;-75
2023/10/31 06:43:52;;;;;;;0.45;0.45;;;9.90;99.90;;;;;;4946411;28;20042;-75
2023/10/31 06:46:18;;;;;;;0.40;0.40;;;9.90;99.90;;;;;;4944916;28;20130;-75
2023/10/31 06:48:43;;;;;;;0.50;0.50;;;9.90;99.90;;;;;;4944759;28;20049;-75
2023/10/31 06:51:09;;;;;;;0.43;0.43;;;9.90;99.90;;;;;;4945972;28;20082;-75
2023/10/31 06:53:35;;;;;;;0.28;0.28;;;9.90;99.90;;;;;;4952379;28;20161;-75
2023/10/31 06:56:00;;;;;;;0.40;0.40;;;9.90;99.90;;;;;;4952111;28;20074;-75
2023/10/31 06:58:26;;;;;;;0.47;0.47;;;9.90;99.90;;;;;;4951009;28;20051;-75
2023/10/31 07:00:52;;;;;;;0.57;0.57;;;9.90;99.90;;;;;;4949356;28;20044;-75
2023/10/31 07:03:17;;;;;;;0.65;0.50;;;9.90;99.90;;;;;;4944157;28;20224;-75
2023/10/31 07:05:43;;;;;;;2.63;0.70;;;9.90;99.90;;;;;;4945792;28;20047;-75
2023/10/31 07:08:10;;;;;;;0.45;0.45;;;9.90;99.90;;;;;;4944704;28;20579;-75
2023/10/31 07:10:35;;;;;;;0.85;0.73;;;9.90;99.90;;;;;;4945850;28;20155;-74
2023/10/31 07:13:01;;;;;;;0.50;0.50;;;9.90;99.90;;;;;;4945188;28;20162;-74
2023/10/31 07:15:27;;;;;;;0.40;0.40;;;9.90;99.90;;;;;;4944509;28;20074;-75
2023/10/31 07:17:52;;;;;;;0.73;0.73;;;10.00;99.90;;;;;;4945948;28;20057;-74
2023/10/31 07:20:18;;;;;;;0.30;0.30;;;10.00;99.90;;;;;;4946656;28;20518;-75
2023/10/31 07:22:44;;;;;;;0.80;0.80;;;10.00;99.90;;;;;;4948455;28;20491;-75
2023/10/31 07:25:10;;;;;;;0.30;0.30;;;10.00;99.90;;;;;;4958406;28;20065;-75
2023/10/31 07:27:36;;;;;;;0.50;0.50;;;10.00;99.90;;;;;;4952866;28;20498;-76
2023/10/31 07:30:06;;;;;;;0.82;0.82;;;10.10;99.90;;;;;;4948218;28;20053;-74
2023/10/31 07:32:31;;;;;;;0.80;0.80;;;10.10;99.90;;;;;;4935140;28;20058;-74
2023/10/31 07:34:57;;;;;;;0.40;0.40;;;10.10;99.90;;;;;;4944091;28;20047;-75
2023/10/31 07:37:23;;;;;;;0.57;0.40;;;10.10;99.90;;;;;;4944323;28;20054;-74
2023/10/31 07:39:50;;;;;;;7.40;1.02;;;10.10;99.90;;;;;;4943134;28;20104;-74
2023/10/31 07:42:16;;;;;;;0.60;0.60;;;10.10;99.90;;;;;;4948416;28;20141;-74
2023/10/31 07:44:42;;;;;;;0.63;0.63;;;10.20;99.90;;;;;;4953551;28;20150;-74
2023/10/31 07:47:08;;;;;;;0.60;0.60;;;10.20;99.90;;;;;;4942562;28;20492;-74
2023/10/31 07:49:33;;;;;;;0.88;0.88;;;10.20;99.90;;;;;;4951245;28;20046;-74
2023/10/31 07:51:59;;;;;;;0.93;0.63;;;10.30;99.90;;;;;;4952021;28;20058;-74
2023/10/31 07:54:25;;;;;;;0.40;0.40;;;10.30;99.90;;;;;;4947510;28;20149;-74
2023/10/31 07:56:50;;;;;;;0.60;0.60;;;10.30;99.90;;;;;;4951037;28;20047;-74
2023/10/31 07:59:16;;;;;;;0.43;0.43;;;10.30;99.90;;;;;;4951371;28;20057;-74
2023/10/31 08:01:42;;;;;;;1.15;0.88;;;10.40;99.90;;;;;;4951966;28;20059;-74
2023/10/31 08:04:07;;;;;;;0.60;0.60;;;10.40;99.90;;;;;;4941696;28;20054;-74
2023/10/31 08:06:33;;;;;;;0.60;0.60;;;10.40;99.90;;;;;;4942666;28;20051;-74
2023/10/31 08:08:59;;;;;;;0.60;0.60;;;10.40;99.90;;;;;;4947530;28;20558;-74
2023/10/31 08:11:25;;;;;;;1.40;1.30;;;10.50;99.90;;;;;;4951109;28;20428;-74
2023/10/31 08:13:50;;;;;;;0.95;0.95;;;10.50;99.90;;;;;;4951269;28;20050;-74
2023/10/31 08:16:20;;;;;;;0.85;0.85;;;10.50;99.90;;;;;;4951138;28;20178;-74
2023/10/31 08:18:47;;;;;;;1.30;0.90;;;10.50;99.90;;;;;;4947377;28;20450;-74
2023/10/31 08:21:13;;;;;;;0.65;0.65;;;10.60;99.90;;;;;;4950467;28;20960;-74
2023/10/31 08:23:39;;;;;;;0.60;0.60;;;10.60;99.90;;;;;;4950129;28;20042;-75
2023/10/31 08:26:05;;;;;;;0.40;0.40;;;10.70;99.90;;;;;;4950318;28;20053;-73
2023/10/31 08:28:30;;;;;;;0.50;0.50;;;10.70;99.90;;;;;;4950276;28;20054;-73
2023/10/31 08:30:59;;;;;;;0.32;0.32;;;10.80;99.90;;;;;;4948843;28;20094;-73
2023/10/31 08:33:25;;;;;;;0.45;0.45;;;10.80;99.90;;;;;;4945846;28;20062;-74
2023/10/31 08:35:51;;;;;;;0.40;0.40;;;10.80;99.90;;;;;;4949592;28;20050;-74
2023/10/31 08:38:17;;;;;;;0.30;0.30;;;10.90;99.90;;;;;;4950910;28;20507;-73
2023/10/31 08:40:42;;;;;;;0.40;0.40;;;11.00;99.90;;;;;;4948762;28;20500;-74
2023/10/31 08:43:08;;;;;;;0.65;0.65;;;11.00;99.90;;;;;;4950444;28;20129;-73
2023/10/31 08:45:34;;;;;;;1.20;1.10;;;11.10;99.90;;;;;;4949609;28;20046;-74
2023/10/31 08:48:00;;;;;;;0.50;0.50;;;11.10;99.90;;;;;;4950098;28;20431;-73
2023/10/31 08:50:26;;;;;;;0.40;0.40;;;11.10;99.90;;;;;;4949213;28;20137;-73
2023/10/31 08:52:51;;;;;;;0.50;0.50;;;11.20;99.90;;;;;;4950445;28;20051;-74
2023/10/31 08:55:18;;;;;;;0.40;0.40;;;11.30;99.90;;;;;;4948139;28;20377;-73
2023/10/31 08:57:43;;;;;;;0.50;0.50;;;11.30;99.90;;;;;;4950214;28;20039;-73
2023/10/31 09:00:10;;;;;;;0.40;0.40;;;11.20;99.90;;;;;;4948216;28;20042;-73
2023/10/31 09:02:36;;;;;;;0.40;0.40;;;11.30;99.90;;;;;;4948421;28;20062;-73
2023/10/31 09:05:02;;;;;;;0.40;0.40;;;11.30;99.90;;;;;;4950150;28;20050;-73
2023/10/31 09:07:27;;;;;;;0.40;0.40;;;11.30;99.90;;;;;;4961382;28;20129;-73
2023/10/31 09:09:53;;;;;;;0.40;0.40;;;11.40;99.90;;;;;;4968832;28;20125;-73
2023/10/31 09:12:19;;;;;;;0.40;0.40;;;11.40;99.90;;;;;;4948635;28;20050;-73
2023/10/31 09:14:45;;;;;;;0.50;0.50;;;11.40;99.90;;;;;;4948902;28;20153;-74
2023/10/31 09:17:11;;;;;;;1.50;0.45;;;11.30;99.90;;;;;;4948584;28;20050;-73
2023/10/31 09:19:36;;;;;;;0.40;0.40;;;11.30;99.90;;;;;;4949878;28;20561;-74
2023/10/31 09:22:02;;;;;;;0.40;0.40;;;11.40;99.90;;;;;;4949837;28;20043;-74
2023/10/31 09:24:28;;;;;;;0.40;0.40;;;11.40;99.90;;;;;;4950972;28;20051;-74
2023/10/31 09:26:54;;;;;;;0.40;0.40;;;11.40;99.90;;;;;;4949253;28;20057;-74
2023/10/31 09:29:19;;;;;;;0.50;0.50;;;11.40;99.90;;;;;;4946605;28;20535;-74
2023/10/31 09:31:45;;;;;;;0.40;0.40;;;11.40;99.90;;;;;;4949253;28;20415;-74
2023/10/31 09:34:11;;;;;;;0.40;0.40;;;11.40;99.90;;;;;;4950077;28;20047;-75
2023/10/31 09:36:38;;;;;;;0.40;0.40;;;11.40;99.90;;;;;;4946334;28;20055;-75
2023/10/31 09:39:05;;;;;;;0.50;0.50;;;11.50;99.90;;;;;;4952622;28;20050;-75
2023/10/31 09:41:34;;;;;;;0.50;0.50;;;11.40;99.90;;;;;;4952634;28;20529;-75
2023/10/31 09:44:00;;;;;;;0.40;0.40;;;11.40;99.90;;;;;;4950760;28;20089;-74
2023/10/31 09:46:27;;;;;;;0.40;0.40;;;11.40;99.90;;;;;;4952413;28;20487;-75
2023/10/31 09:48:53;;;;;;;0.52;0.52;;;11.40;99.90;;;;;;4953207;28;20407;-75
2023/10/31 09:51:20;;;;;;;0.50;0.50;;;11.50;99.90;;;;;;4951514;28;20038;-75
2023/10/31 09:53:47;;;;;;;0.40;0.40;;;11.50;99.90;;;;;;4953963;28;20051;-74
2023/10/31 09:56:14;;;;;;;0.40;0.40;;;11.60;99.90;;;;;;4949650;28;20070;-74
2023/10/31 09:58:41;;;;;;;0.40;0.40;;;11.50;99.90;;;;;;4953416;28;20057;-74
2023/10/31 10:01:07;;;;;;;0.40;0.40;;;11.50;99.90;;;;;;4957331;28;20050;-74
2023/10/31 10:03:33;;;;;;;0.30;0.30;;;11.50;99.90;;;;;;4949259;28;20062;-73
2023/10/31 10:05:59;;;;;;;0.40;0.40;;;11.60;99.90;;;;;;4952821;28;20659;-74
2023/10/31 10:08:24;;;;;;;0.90;0.85;;;11.60;99.90;;;;;;4957419;28;20046;-76
2023/10/31 10:10:51;;;;;;;0.40;0.40;;;11.60;99.90;;;;;;4949656;28;20488;-75
2023/10/31 10:13:20;;;;;;;0.40;0.40;;;11.60;99.90;;;;;;4953612;28;20062;-77
2023/10/31 10:15:49;;;;;;;0.40;0.40;;;11.60;99.90;;;;;;4952820;28;20055;-75
2023/10/31 10:18:29;;;;;;;0.40;0.40;;;11.70;99.90;;;;;;4946254;28;20069;-75
2023/10/31 10:20:59;;;;;;;0.40;0.40;;;11.60;99.90;;;;;;4953332;28;20039;-74
2023/10/31 10:23:25;;;;;;;0.43;0.43;;;11.60;99.90;;;;;;4950079;28;20057;-74
2023/10/31 10:25:52;;;;;;;0.40;0.40;;;11.60;99.90;;;;;;4948380;28;20132;-74
2023/10/31 10:28:21;;;;;;;0.35;0.35;;;11.60;99.90;;;;;;4950117;28;20046;-74
2023/10/31 10:30:47;;;;;;;0.32;0.32;;;11.70;99.90;;;;;;4956129;28;20047;-74
2023/10/31 10:33:14;;;;;;;0.35;0.35;;;11.70;99.90;;;;;;4948208;28;20859;-74
2023/10/31 10:35:40;;;;;;;0.40;0.40;;;11.70;99.90;;;;;;4948208;28;20158;-74
2023/10/31 10:38:19;;;;;;;0.40;0.40;;;11.60;99.90;;;;;;4946295;28;20051;-75
2023/10/31 10:40:49;;;;;;;0.40;0.40;;;11.60;99.90;;;;;;4950274;28;20031;-76
2023/10/31 10:43:22;;;;;;;0.40;0.40;;;11.60;99.90;;;;;;4946870;28;20145;-76
2023/10/31 10:45:55;;;;;;;0.40;0.40;;;11.70;99.90;;;;;;4965788;28;20054;-77
2023/10/31 10:48:22;;;;;;;0.35;0.35;;;11.80;99.90;;;;;;4966482;28;20082;-76
2023/10/31 10:50:57;;;;;;;0.35;0.35;;;11.80;99.90;;;;;;4967277;28;20047;-74
2023/10/31 10:53:30;;;;;;;0.40;0.40;;;11.80;99.90;;;;;;4951110;28;20050;-75
2023/10/31 10:56:02;;;;;;;0.52;0.52;;;12.00;99.90;;;;;;4951818;28;20071;-77
2023/10/31 10:58:53;;;;;;;0.43;0.43;;;12.00;99.90;;;;;;4950446;28;20050;-74
2023/10/31 11:01:19;;;;;;;0.40;0.40;;;12.00;99.90;;;;;;4955004;28;20047;-74
2023/10/31 11:03:46;;;;;;;0.30;0.30;;;12.10;99.90;;;;;;4951330;28;20045;-74
2023/10/31 11:06:13;;;;;;;0.40;0.40;;;12.30;99.90;;;;;;4951291;28;20484;-75
2023/10/31 11:08:40;;;;;;;0.40;0.40;;;12.50;99.90;;;;;;4952995;28;20125;-74
2023/10/31 11:11:06;;;;;;;0.25;0.25;;;12.70;99.90;;;;;;4953007;28;20066;-75
2023/10/31 11:13:32;;;;;;;0.40;0.40;;;12.90;99.90;;;;;;4949479;28;20047;-75
2023/10/31 11:16:06;;;;;;;0.40;0.40;;;13.00;99.90;;;;;;4949797;28;20435;-75
2023/10/31 11:18:32;;;;;;;0.60;0.60;;;13.10;99.90;;;;;;4947020;28;21308;-75
2023/10/31 11:20:58;;;;;;;0.50;0.50;;;13.10;99.90;;;;;;4951414;28;20046;-75
2023/10/31 11:23:24;;;;;;;0.50;0.50;;;13.00;99.90;;;;;;4952498;28;20098;-75
2023/10/31 11:25:53;;;;;;;0.40;0.40;;;13.00;99.90;;;;;;4957661;28;20130;-75
2023/10/31 11:28:19;;;;;;;0.40;0.40;;;13.00;99.90;;;;;;4952574;28;20504;-75
2023/10/31 11:30:49;;;;;;;0.40;0.40;;;12.90;99.90;;;;;;4950589;28;20042;-75
2023/10/31 11:33:20;;;;;;;0.40;0.40;;;12.90;99.90;;;;;;4934286;28;20050;-75
2023/10/31 11:35:50;;;;;;;0.40;0.40;;;12.90;99.90;;;;;;4951495;28;20059;-75
2023/10/31 11:38:16;;;;;;;0.40;0.40;;;12.80;99.90;;;;;;4951981;28;20043;-75
2023/10/31 11:40:48;;;;;;;0.45;0.45;;;12.80;99.90;;;;;;4951038;28;20050;-75
2023/10/31 11:43:13;;;;;;;0.30;0.30;;;12.80;99.90;;;;;;4950522;28;20411;-75
2023/10/31 11:45:44;;;;;;;0.50;0.50;;;12.80;99.90;;;;;;4951116;28;20042;-75
2023/10/31 11:48:10;;;;;;;0.60;0.60;;;12.90;99.90;;;;;;4950740;28;20043;-75
2023/10/31 11:50:37;;;;;;;0.45;0.45;;;12.80;99.90;;;;;;4934833;28;20058;-75
2023/10/31 11:53:07;;;;;;;0.40;0.40;;;12.80;99.90;;;;;;4945847;28;20138;-75
2023/10/31 11:55:39;;;;;;;0.40;0.40;;;12.80;99.90;;;;;;4954358;28;20049;-77
2023/10/31 11:58:19;;;;;;;0.40;0.40;;;12.80;99.90;;;;;;4948184;28;20045;-74
2023/10/31 12:00:50;;;;;;;0.57;0.57;;;12.80;99.90;;;;;;4949924;28;20079;-72
2023/10/31 12:03:21;;;;;;;0.40;0.40;;;12.80;99.90;;;;;;4942295;28;20065;-72
2023/10/31 12:05:54;;;;;;;0.30;0.30;;;12.80;99.90;;;;;;4953253;28;20121;-72
2023/10/31 12:08:40;;;;;;;0.50;0.50;;;12.70;99.90;;;;;;4952401;28;20070;-72
2023/10/31 12:11:11;;;;;;;0.40;0.40;;;12.80;99.90;;;;;;4950550;28;20053;-73
2023/10/31 12:13:39;;;;;;;0.40;0.40;;;12.80;99.90;;;;;;4947946;28;20051;-72
2023/10/31 12:16:06;;;;;;;0.40;0.40;;;12.70;99.90;;;;;;4948125;28;20054;-72
2023/10/31 12:18:34;;;;;;;0.40;0.40;;;12.70;99.90;;;;;;4951181;28;20059;-72
2023/10/31 12:21:00;;;;;;;0.40;0.40;;;12.70;99.90;;;;;;4951060;28;20047;-72
2023/10/31 12:23:25;;;;;;;0.40;0.40;;;12.80;99.90;;;;;;4952296;28;20058;-72
2023/10/31 12:25:53;;;;;;;0.40;0.40;;;12.70;99.90;;;;;;4950707;28;20513;-72
2023/10/31 12:28:23;;;;;;;0.30;0.30;;;12.80;99.90;;;;;;4950827;28;20050;-72
2023/10/31 12:30:54;;;;;;;0.40;0.40;;;12.70;99.90;;;;;;4954226;28;20054;-72
2023/10/31 12:33:21;;;;;;;0.30;0.30;;;12.70;99.90;;;;;;4965861;28;20055;-72
2023/10/31 12:35:48;;;;;;;0.30;0.30;;;12.70;99.90;;;;;;4968738;28;20092;-71
2023/10/31 12:38:14;;;;;;;0.30;0.30;;;12.60;99.90;;;;;;4968291;28;20520;-71
2023/10/31 12:40:42;;;;;;;0.40;0.40;;;12.60;99.90;;;;;;4952669;28;20055;-72
2023/10/31 12:43:09;;;;;;;0.40;0.40;;;12.60;99.90;;;;;;4951846;28;20591;-72
2023/10/31 12:45:35;;;;;;;0.40;0.40;;;12.60;99.90;;;;;;4950853;28;20516;-72